Time;durP1;ratioP1;P1;durP2;ratioP2;P2;SDS_P1;SDS_P2;PMS_P1;PMS_P2;Temp;Humidity;BMP_temperature;BMP_pressure;BME280_temperature;BME280_humidity;BME280_pressure;Samples;Min_cycle;Max_cycle;Signal;HPM_P1;HPM_P2
2023/01/21 00:01:09;;;;;;;26.52;16.48;;;0.00;91.50;;;;;;5012184;28;20440;-46
2023/01/21 00:03:41;;;;;;;;;;;0.10;91.60;;;;;;5013628;28;20080;-44
2023/01/21 00:06:09;;;;;;;29.50;15.85;;;0.10;91.50;;;;;;5013860;28;19971;-46
2023/01/21 00:08:36;;;;;;;31.90;17.27;;;0.10;91.50;;;;;;5017153;28;20064;-50
2023/01/21 00:11:13;;;;;;;26.95;16.15;;;0.20;91.60;;;;;;5028519;28;20374;-46
2023/01/21 00:13:39;;;;;;;33.38;18.17;;;0.20;91.60;;;;;;5015509;28;20379;-46
2023/01/21 00:16:07;;;;;;;28.77;17.27;;;0.20;91.60;;;;;;5016948;28;20060;-46
2023/01/21 00:18:34;;;;;;;31.38;17.02;;;0.20;91.60;;;;;;5021176;28;20021;-45
2023/01/21 00:21:01;;;;;;;30.70;17.13;;;0.30;91.60;;;;;;5036955;28;20358;-45
2023/01/21 00:23:27;;;;;;;30.27;18.70;;;0.40;91.60;;;;;;5018972;28;20045;-46
2023/01/21 00:26:02;;;;;;;35.40;16.85;;;0.40;91.60;;;;;;5032543;28;20076;-47
2023/01/21 00:28:30;;;;;;;25.80;15.75;;;0.40;91.70;;;;;;5036486;28;20037;-47
2023/01/21 00:31:01;;;;;;;27.90;15.40;;;0.40;91.60;;;;;;5030894;28;20052;-46
2023/01/21 00:33:31;;;;;;;25.27;15.43;;;0.50;91.70;;;;;;5035703;28;20037;-47
2023/01/21 00:36:09;;;;;;;33.78;20.83;;;0.50;91.70;;;;;;5036268;28;20065;-44
2023/01/21 00:38:38;;;;;;;26.35;15.45;;;0.50;91.60;;;;;;5026330;28;20044;-47
2023/01/21 00:41:27;;;;;;;24.13;16.15;;;0.60;91.60;;;;;;5026967;28;20371;-47
2023/01/21 00:43:56;;;;;;;28.20;15.82;;;0.60;91.60;;;;;;5033440;28;20065;-46
2023/01/21 00:46:22;;;;;;;22.10;13.93;;;0.60;91.40;;;;;;5015687;28;20367;-45
2023/01/21 00:48:49;;;;;;;20.77;13.82;;;0.60;91.50;;;;;;5016284;28;20022;-47
2023/01/21 00:51:16;;;;;;;24.42;14.00;;;0.60;91.50;;;;;;5016884;28;20021;-47
2023/01/21 00:53:43;;;;;;;24.70;13.63;;;0.60;91.50;;;;;;5016265;28;20041;-46
2023/01/21 00:56:12;;;;;;;22.77;13.13;;;0.60;91.50;;;;;;5024807;28;20044;-49
2023/01/21 00:58:42;;;;;;;23.58;14.82;;;0.60;91.40;;;;;;5015239;28;20026;-48
2023/01/21 01:01:12;;;;;;;27.15;15.02;;;0.50;91.20;;;;;;5016083;28;20486;-47
2023/01/21 01:03:38;;;;;;;22.40;12.70;;;0.50;91.40;;;;;;5014427;28;20050;-46
2023/01/21 01:06:17;;;;;;;23.30;13.13;;;0.40;91.20;;;;;;5015761;28;20030;-46
2023/01/21 01:08:44;;;;;;;19.83;13.30;;;0.50;91.40;;;;;;5016199;28;20030;-47
2023/01/21 01:11:12;;;;;;;23.45;14.77;;;0.50;91.40;;;;;;5032441;28;20041;-46
2023/01/21 01:13:39;;;;;;;22.40;14.73;;;0.50;91.40;;;;;;5024962;28;20026;-44
2023/01/21 01:16:06;;;;;;;25.27;15.13;;;0.50;91.50;;;;;;5015682;28;20069;-42
2023/01/21 01:18:35;;;;;;;22.60;13.20;;;0.50;91.60;;;;;;5014320;28;20026;-43
2023/01/21 01:21:03;;;;;;;26.65;15.55;;;0.60;91.70;;;;;;5016170;28;20087;-44
2023/01/21 01:23:29;;;;;;;22.75;13.88;;;0.60;91.80;;;;;;5023616;28;20538;-45
2023/01/21 01:26:04;;;;;;;22.13;13.32;;;0.70;91.80;;;;;;5033696;28;20108;-44
2023/01/21 01:28:32;;;;;;;24.23;13.93;;;0.70;91.80;;;;;;5015780;28;20100;-44
2023/01/21 01:31:03;;;;;;;21.70;14.25;;;0.70;92.00;;;;;;5015725;28;20328;-44
2023/01/21 01:33:30;;;;;;;27.40;17.50;;;0.70;91.90;;;;;;5015582;28;20113;-44
2023/01/21 01:36:09;;;;;;;23.85;14.90;;;0.70;92.00;;;;;;5015559;28;20034;-43
2023/01/21 01:38:38;;;;;;;21.83;13.90;;;0.70;91.90;;;;;;5015729;28;20038;-43
2023/01/21 01:41:05;;;;;;;25.92;15.43;;;0.60;91.90;;;;;;5026993;28;20033;-44
2023/01/21 01:43:51;;;;;;;23.33;13.50;;;0.50;91.80;;;;;;5033434;28;20443;-44
2023/01/21 01:46:19;;;;;;;26.33;16.30;;;0.50;91.90;;;;;;5035524;28;20029;-44
2023/01/21 01:48:50;;;;;;;22.20;13.38;;;0.50;91.90;;;;;;5015209;28;20026;-42
2023/01/21 01:51:21;;;;;;;27.42;14.25;;;0.50;91.90;;;;;;5015064;28;20030;-43
2023/01/21 01:53:50;;;;;;;23.48;13.10;;;0.40;91.90;;;;;;5015244;28;20471;-42
2023/01/21 01:56:18;;;;;;;25.40;14.15;;;0.40;92.00;;;;;;5029732;28;20041;-42
2023/01/21 01:58:47;;;;;;;22.40;13.82;;;0.40;91.80;;;;;;5029633;28;20041;-42
2023/01/21 02:01:14;;;;;;;27.35;15.35;;;0.40;92.00;;;;;;5015085;28;20053;-45
2023/01/21 02:03:44;;;;;;;25.45;15.60;;;0.40;92.00;;;;;;5014577;28;20041;-48
2023/01/21 02:06:18;;;;;;;23.75;14.05;;;0.40;91.90;;;;;;5015009;28;20014;-42
2023/01/21 02:08:46;;;;;;;25.92;15.13;;;0.40;91.80;;;;;;5028020;28;20049;-44
2023/01/21 02:11:16;;;;;;;27.73;14.77;;;0.30;91.80;;;;;;5032767;28;20041;-46
2023/01/21 02:13:57;;;;;;;25.50;16.75;;;0.20;91.80;;;;;;5034671;28;20026;-43
2023/01/21 02:17:00;;;;;;;25.50;15.98;;;0.20;91.90;;;;;;5032720;28;20037;-44
2023/01/21 02:20:01;;;;;;;22.63;13.57;;;0.20;91.90;;;;;;5014350;28;20072;-45
2023/01/21 02:22:41;;;;;;;30.30;16.58;;;0.10;91.80;;;;;;4997224;28;20363;-45
2023/01/21 02:25:19;;;;;;;25.65;14.73;;;0.10;92.00;;;;;;5016896;28;20026;-45
2023/01/21 02:28:06;;;;;;;24.73;15.27;;;0.20;92.20;;;;;;5014588;28;20034;-44
2023/01/21 02:30:40;;;;;;;27.10;15.05;;;0.20;92.10;;;;;;5013865;28;20022;-46
2023/01/21 02:33:23;;;;;;;25.63;15.93;;;0.10;92.10;;;;;;5014344;28;20487;-44
2023/01/21 02:36:42;;;;;;;26.23;14.98;;;0.20;92.10;;;;;;5027773;28;20543;-42
2023/01/21 02:39:35;;;;;;;29.38;16.45;;;0.20;92.10;;;;;;5022574;28;20398;-44
2023/01/21 02:42:39;;;;;;;28.20;15.55;;;0.20;92.10;;;;;;5032260;28;20034;-42
2023/01/21 02:45:28;;;;;;;27.15;15.68;;;0.20;92.20;;;;;;5032958;28;20067;-45
2023/01/21 02:48:25;;;;;;;26.52;14.98;;;0.30;92.10;;;;;;5033861;28;20017;-47
2023/01/21 02:50:57;;;;;;;26.67;15.57;;;0.20;92.10;;;;;;5022431;28;20036;-42
2023/01/21 02:53:32;;;;;;;25.42;14.65;;;0.30;92.10;;;;;;5013985;28;20038;-45
2023/01/21 02:56:10;;;;;;;26.92;15.20;;;0.30;92.10;;;;;;5023023;28;20025;-44
2023/01/21 02:58:59;;;;;;;25.17;14.50;;;0.30;92.00;;;;;;5020541;28;20034;-44
2023/01/21 03:01:48;;;;;;;28.48;16.77;;;0.20;91.90;;;;;;5013696;28;20117;-45
2023/01/21 03:04:14;;;;;;;;;;;0.20;91.90;;;;;;5013981;28;20054;-47
2023/01/21 03:06:40;;;;;;;30.08;14.52;;;0.10;91.90;;;;;;5013797;28;19967;-44
2023/01/21 03:09:23;;;;;;;27.48;15.98;;;0.00;91.70;;;;;;5013678;28;20455;-45
2023/01/21 03:12:18;;;;;;;29.98;16.73;;;-3276.70;91.60;;;;;;5029866;28;20030;-44
2023/01/21 03:18:20;;;;;;;29.85;16.67;;;0.00;92.30;;;;;;5013927;28;20049;-43
2023/01/21 03:21:03;;;;;;;28.30;16.20;;;0.00;92.50;;;;;;5024974;28;20061;-44
2023/01/21 03:23:35;;;;;;;30.55;15.57;;;0.00;92.60;;;;;;5031909;28;20025;-47
2023/01/21 03:26:05;;;;;;;31.63;17.65;;;0.00;92.70;;;;;;5024441;28;20030;-42
2023/01/21 03:28:43;;;;;;;30.73;17.33;;;0.00;92.60;;;;;;5012510;28;20440;-43
2023/01/21 03:31:18;;;;;;;28.70;17.02;;;0.00;92.60;;;;;;5013495;28;20511;-42
2023/01/21 03:33:52;;;;;;;35.10;17.23;;;0.00;92.60;;;;;;5013453;28;20022;-44
2023/01/21 03:36:34;;;;;;;32.95;17.85;;;0.10;92.60;;;;;;5012503;28;20029;-42
2023/01/21 03:39:08;;;;;;;31.27;16.88;;;0.00;92.40;;;;;;5015965;28;20028;-43
2023/01/21 03:41:38;;;;;;;30.48;16.67;;;0.00;92.60;;;;;;5029865;28;20034;-43
2023/01/21 03:44:04;;;;;;;33.35;17.42;;;0.00;92.60;;;;;;5014051;28;20045;-43
2023/01/21 03:46:42;;;;;;;35.50;18.20;;;0.00;92.60;;;;;;5013472;28;20058;-43
2023/01/21 03:49:24;;;;;;;29.52;16.17;;;0.00;92.70;;;;;;5013192;28;20447;-42
2023/01/21 03:52:02;;;;;;;28.83;16.73;;;0.00;92.70;;;;;;5013282;28;20049;-43
2023/01/21 03:54:30;;;;;;;39.35;20.30;;;0.00;92.70;;;;;;5027741;28;20029;-43
2023/01/21 03:56:55;;;;;;;30.65;17.70;;;0.00;92.60;;;;;;5027669;28;20026;-47
2023/01/21 03:59:22;;;;;;;29.67;17.02;;;0.00;92.60;;;;;;5013267;28;20030;-47
2023/01/21 04:01:49;;;;;;;28.15;16.30;;;0.00;92.60;;;;;;5013150;28;20026;-45
2023/01/21 04:04:16;;;;;;;29.67;16.77;;;0.00;92.70;;;;;;5012021;28;20152;-47
2023/01/21 04:06:42;;;;;;;29.23;16.75;;;0.00;92.60;;;;;;5013113;28;20108;-44
2023/01/21 04:09:10;;;;;;;30.83;17.73;;;0.00;92.60;;;;;;5017413;28;20117;-46
2023/01/21 04:11:37;;;;;;;31.30;16.83;;;0.00;92.60;;;;;;5032896;28;20030;-45
2023/01/21 04:14:04;;;;;;;26.30;16.75;;;0.00;92.60;;;;;;5032763;28;20038;-44
2023/01/21 04:16:31;;;;;;;29.50;16.85;;;0.00;92.50;;;;;;5031600;28;20025;-47
2023/01/21 04:18:58;;;;;;;28.73;15.88;;;0.00;92.40;;;;;;5032193;28;20481;-43
2023/01/21 04:21:27;;;;;;;30.73;17.80;;;-3276.70;92.40;;;;;;5032688;28;20025;-44
2023/01/21 04:23:53;;;;;;;28.67;16.90;;;-3276.60;92.30;;;;;;5021584;28;20030;-44
2023/01/21 04:26:20;;;;;;;33.63;16.27;;;-3276.60;92.30;;;;;;5011830;28;20050;-46
2023/01/21 04:28:47;;;;;;;29.75;16.58;;;-3276.60;92.20;;;;;;5027600;28;20082;-44
2023/01/21 04:31:13;;;;;;;30.52;17.33;;;-3276.60;92.00;;;;;;5032597;28;20036;-43
2023/01/21 04:33:41;;;;;;;25.20;16.35;;;-3276.50;92.00;;;;;;5016429;28;20337;-46
2023/01/21 04:36:08;;;;;;;28.55;16.00;;;-3276.50;92.00;;;;;;5012880;28;20026;-44
2023/01/21 04:38:35;;;;;;;27.58;15.32;;;-3276.40;92.00;;;;;;5020917;28;20018;-48
2023/01/21 04:41:01;;;;;;;25.80;15.07;;;-3276.40;92.00;;;;;;5032564;28;20029;-46
2023/01/21 04:43:31;;;;;;;28.80;16.77;;;-3276.50;92.00;;;;;;5024540;28;20041;-47
2023/01/21 04:45:58;;;;;;;28.23;14.98;;;-3276.40;92.00;;;;;;5012941;28;20370;-43
2023/01/21 04:48:24;;;;;;;26.20;15.48;;;-3276.50;92.10;;;;;;5012669;28;20034;-42
2023/01/21 04:50:51;;;;;;;28.77;17.85;;;-3276.50;92.20;;;;;;5018401;28;20053;-44
2023/01/21 04:53:16;;;;;;;28.98;17.63;;;-3276.60;92.40;;;;;;5024072;28;20084;-44
2023/01/21 04:55:43;;;;;;;27.15;16.38;;;-3276.60;92.40;;;;;;5035078;28;20033;-47
2023/01/21 04:58:12;;;;;;;27.70;15.98;;;-3276.70;92.40;;;;;;5035735;28;20117;-43
2023/01/21 05:00:38;;;;;;;27.25;16.35;;;0.00;92.50;;;;;;5017878;28;20109;-43
2023/01/21 05:03:05;;;;;;;35.78;19.77;;;0.00;92.50;;;;;;5015100;28;20100;-45
2023/01/21 05:05:32;;;;;;;35.70;22.40;;;0.10;92.70;;;;;;5026767;28;20057;-45
2023/01/21 05:08:01;;;;;;;38.90;24.48;;;0.20;92.90;;;;;;5028298;28;20054;-44
2023/01/21 05:10:28;;;;;;;40.38;23.65;;;0.40;93.30;;;;;;5035837;28;20024;-42
2023/01/21 05:12:57;;;;;;;35.60;24.05;;;0.60;93.40;;;;;;5024134;28;20034;-43
2023/01/21 05:15:23;;;;;;;38.00;23.43;;;0.70;93.50;;;;;;5015984;28;20025;-43
2023/01/21 05:17:52;;;;;;;43.20;24.88;;;0.90;93.60;;;;;;5016031;28;20586;-42
2023/01/21 05:20:18;;;;;;;42.22;24.73;;;1.00;93.70;;;;;;5015660;28;20041;-44
2023/01/21 05:22:48;;;;;;;38.30;22.92;;;1.00;93.70;;;;;;5016877;28;20077;-46
2023/01/21 05:25:15;;;;;;;39.15;24.15;;;1.10;93.70;;;;;;5023228;28;20117;-42
2023/01/21 05:27:41;;;;;;;36.97;23.77;;;1.20;93.70;;;;;;5015646;28;20022;-42
2023/01/21 05:30:08;;;;;;;33.67;21.35;;;1.20;93.70;;;;;;5015420;28;20034;-42
2023/01/21 05:32:35;;;;;;;31.48;19.70;;;1.30;93.70;;;;;;5028057;28;20040;-45
2023/01/21 05:35:05;;;;;;;29.70;19.92;;;1.30;93.80;;;;;;5014846;28;20160;-43
2023/01/21 05:37:33;;;;;;;27.80;17.88;;;1.40;93.70;;;;;;5015828;28;20113;-44
2023/01/21 05:40:00;;;;;;;22.98;16.50;;;1.40;93.70;;;;;;5032915;28;20061;-43
2023/01/21 05:42:27;;;;;;;27.60;17.65;;;1.50;93.70;;;;;;5033009;28;20026;-42
2023/01/21 05:44:53;;;;;;;27.00;17.08;;;1.40;93.50;;;;;;5015469;28;20044;-45
2023/01/21 05:47:20;;;;;;;26.55;18.33;;;1.50;93.50;;;;;;5015561;28;20037;-44
2023/01/21 05:49:47;;;;;;;28.35;19.67;;;1.50;93.50;;;;;;5014939;28;20022;-45
2023/01/21 05:52:14;;;;;;;26.67;18.17;;;1.50;93.50;;;;;;5014934;28;20037;-43
2023/01/21 05:54:41;;;;;;;26.63;18.95;;;1.50;93.40;;;;;;5032278;28;20038;-44
2023/01/21 05:57:07;;;;;;;26.40;17.38;;;1.50;93.40;;;;;;5033753;28;20455;-43
2023/01/21 05:59:33;;;;;;;31.45;19.67;;;1.50;93.40;;;;;;5020894;28;20117;-42
2023/01/21 06:02:00;;;;;;;25.05;17.40;;;1.50;93.40;;;;;;5014262;28;20458;-42
2023/01/21 06:04:29;;;;;;;29.17;19.48;;;1.60;93.40;;;;;;5029132;28;20053;-42
2023/01/21 06:06:57;;;;;;;24.15;17.38;;;1.60;93.50;;;;;;5033738;28;20061;-43
2023/01/21 06:09:24;;;;;;;25.83;18.63;;;1.60;93.50;;;;;;5032199;28;20083;-42
2023/01/21 06:11:50;;;;;;;25.00;17.20;;;1.60;93.40;;;;;;5032689;28;20022;-44
2023/01/21 06:14:20;;;;;;;25.95;16.98;;;1.60;93.40;;;;;;5034756;28;20037;-44
2023/01/21 06:16:46;;;;;;;26.40;18.55;;;1.60;93.40;;;;;;5024303;28;20026;-45
2023/01/21 06:19:13;;;;;;;22.05;15.73;;;1.60;93.50;;;;;;5016714;28;20498;-47
2023/01/21 06:21:40;;;;;;;26.02;17.10;;;1.70;93.50;;;;;;5025582;28;20052;-47
2023/01/21 06:24:10;;;;;;;22.48;15.38;;;1.70;93.40;;;;;;5020970;28;20029;-44
2023/01/21 06:26:36;;;;;;;23.65;16.83;;;1.70;93.40;;;;;;5013370;28;20412;-43
2023/01/21 06:29:03;;;;;;;24.15;15.88;;;1.70;93.40;;;;;;5013576;28;20510;-45
2023/01/21 06:31:30;;;;;;;25.13;16.45;;;1.70;93.40;;;;;;5014588;28;20026;-45
2023/01/21 06:33:57;;;;;;;26.63;16.13;;;1.70;93.40;;;;;;5026122;28;20394;-46
2023/01/21 06:36:24;;;;;;;23.48;15.50;;;1.70;93.40;;;;;;5014475;28;20033;-48
2023/01/21 06:38:50;;;;;;;23.23;16.08;;;1.70;93.40;;;;;;5020301;28;20113;-46
2023/01/21 06:41:17;;;;;;;21.58;14.93;;;1.70;93.40;;;;;;5033644;28;20140;-45
2023/01/21 06:43:43;;;;;;;22.17;14.35;;;1.80;93.40;;;;;;5012471;28;20075;-46
2023/01/21 06:46:11;;;;;;;22.50;15.75;;;1.80;93.30;;;;;;5013974;28;20068;-47
2023/01/21 06:48:42;;;;;;;19.75;14.07;;;1.80;93.30;;;;;;5014014;28;20029;-49
2023/01/21 06:51:09;;;;;;;21.17;13.48;;;1.80;93.30;;;;;;5014052;28;20033;-45
2023/01/21 06:53:35;;;;;;;19.15;14.13;;;1.70;93.30;;;;;;5017656;28;20510;-45
2023/01/21 06:56:02;;;;;;;23.45;13.15;;;1.80;93.30;;;;;;5030339;28;20029;-49
2023/01/21 06:58:29;;;;;;;19.90;13.23;;;1.80;93.30;;;;;;5014036;28;20038;-50
2023/01/21 07:00:56;;;;;;;20.15;14.07;;;1.80;93.20;;;;;;5013955;28;20021;-47
2023/01/21 07:03:23;;;;;;;19.17;13.18;;;1.80;93.20;;;;;;5013895;28;20037;-45
2023/01/21 07:05:50;;;;;;;20.70;13.88;;;1.80;93.20;;;;;;5013625;28;20392;-50
2023/01/21 07:08:18;;;;;;;23.98;14.82;;;1.90;93.20;;;;;;5013353;28;20030;-46
2023/01/21 07:10:45;;;;;;;21.42;13.80;;;1.90;93.10;;;;;;5025866;28;20026;-47
2023/01/21 07:13:11;;;;;;;18.20;13.40;;;1.90;93.00;;;;;;5013735;28;20037;-45
2023/01/21 07:15:37;;;;;;;20.50;13.00;;;1.90;93.00;;;;;;5013741;28;20025;-48
2023/01/21 07:18:04;;;;;;;19.80;13.77;;;1.90;93.00;;;;;;5012682;28;20045;-47
2023/01/21 07:20:31;;;;;;;19.08;12.77;;;1.90;92.90;;;;;;5013631;28;20030;-48
2023/01/21 07:22:57;;;;;;;20.08;15.20;;;1.90;92.90;;;;;;5027943;28;20029;-48
2023/01/21 07:25:24;;;;;;;21.48;14.07;;;1.90;92.80;;;;;;5031422;28;20057;-48
2023/01/21 07:27:53;;;;;;;17.27;12.75;;;1.90;92.70;;;;;;5016484;28;20093;-51
2023/01/21 07:30:21;;;;;;;19.52;14.55;;;1.90;92.70;;;;;;5014020;28;20329;-50
2023/01/21 07:32:48;;;;;;;21.52;13.73;;;1.90;92.70;;;;;;5013470;28;20425;-47
2023/01/21 07:35:15;;;;;;;16.40;12.63;;;1.90;92.70;;;;;;5012761;28;20025;-52
2023/01/21 07:37:42;;;;;;;19.83;14.15;;;1.90;92.70;;;;;;5013279;28;20400;-47
2023/01/21 07:40:11;;;;;;;20.73;14.07;;;1.90;92.70;;;;;;5027384;28;20451;-47
2023/01/21 07:42:38;;;;;;;19.85;14.13;;;1.90;92.60;;;;;;5033239;28;20455;-50
2023/01/21 07:45:05;;;;;;;19.35;13.55;;;1.90;92.70;;;;;;5016822;28;20069;-47
2023/01/21 07:47:32;;;;;;;18.40;12.68;;;1.90;92.70;;;;;;5013405;28;20026;-49
2023/01/21 07:50:03;;;;;;;18.95;12.73;;;2.00;92.70;;;;;;5012421;28;20514;-48
2023/01/21 07:52:31;;;;;;;21.38;14.43;;;2.00;92.70;;;;;;5013465;28;20040;-49
2023/01/21 07:54:57;;;;;;;18.05;13.40;;;2.00;92.60;;;;;;5023647;28;20029;-53
2023/01/21 07:57:24;;;;;;;21.70;14.15;;;2.00;92.70;;;;;;5019511;28;20030;-52
2023/01/21 07:59:50;;;;;;;18.02;12.70;;;2.00;92.60;;;;;;5013286;28;20452;-51
2023/01/21 08:02:17;;;;;;;17.55;11.88;;;2.10;92.60;;;;;;5028513;28;20044;-51
2023/01/21 08:04:44;;;;;;;16.10;11.75;;;2.10;92.40;;;;;;5027562;28;20467;-53
2023/01/21 08:07:11;;;;;;;27.08;20.10;;;2.10;92.30;;;;;;5015431;28;20095;-54
2023/01/21 08:09:41;;;;;;;33.58;26.95;;;2.10;92.10;;;;;;5032760;28;20017;-56
2023/01/21 08:12:12;;;;;;;25.02;20.98;;;2.10;92.00;;;;;;5033173;28;20344;-55
2023/01/21 08:14:39;;;;;;;15.48;13.07;;;2.20;91.90;;;;;;5031277;28;20037;-55
2023/01/21 08:17:08;;;;;;;53.38;39.67;;;2.20;91.70;;;;;;5031769;28;20069;-55
2023/01/21 08:19:36;;;;;;;41.95;31.13;;;2.10;91.10;;;;;;5032541;28;20034;-58
2023/01/21 08:22:04;;;;;;;26.05;19.10;;;2.10;90.60;;;;;;5013939;28;20470;-58
2023/01/21 08:24:30;;;;;;;28.17;20.60;;;2.10;90.50;;;;;;5027487;28;20459;-58
2023/01/21 08:27:00;;;;;;;35.20;24.60;;;2.20;90.50;;;;;;5030301;28;20886;-59
2023/01/21 08:29:27;;;;;;;30.33;21.38;;;2.20;90.20;;;;;;5032997;28;20021;-56
2023/01/21 08:31:55;;;;;;;17.77;11.32;;;2.20;89.90;;;;;;5031216;28;20033;-60
2023/01/21 08:34:22;;;;;;;14.82;12.10;;;2.20;88.80;;;;;;5016763;28;20030;-60
2023/01/21 08:36:47;;;;;;;6.30;5.00;;;2.20;87.70;;;;;;5023088;28;20040;-60
2023/01/21 08:39:17;;;;;;;6.00;5.22;;;2.20;86.40;;;;;;5036403;28;20428;-61
2023/01/21 08:41:44;;;;;;;4.57;3.03;;;2.30;86.00;;;;;;5023501;28;20065;-60
2023/01/21 08:44:11;;;;;;;4.07;2.90;;;2.30;84.80;;;;;;5034418;28;20033;-60
2023/01/21 08:46:37;;;;;;;8.35;4.53;;;2.40;84.90;;;;;;5036190;28;20083;-60
2023/01/21 08:49:06;;;;;;;7.95;5.18;;;2.40;85.00;;;;;;5032126;28;20030;-58
2023/01/21 08:51:32;;;;;;;45.38;27.70;;;2.40;84.90;;;;;;5031935;28;20073;-60
2023/01/21 08:54:01;;;;;;;12.27;7.68;;;2.40;84.50;;;;;;5032956;28;20057;-60
2023/01/21 08:56:27;;;;;;;7.25;4.82;;;2.50;83.90;;;;;;5032993;28;20033;-60
2023/01/21 08:58:56;;;;;;;5.72;4.50;;;2.50;84.10;;;;;;5031037;28;20038;-58
2023/01/21 09:01:24;;;;;;;5.05;3.28;;;2.50;84.20;;;;;;5031273;28;20017;-58
2023/01/21 09:03:59;;;;;;;5.93;3.65;;;2.60;83.60;;;;;;5027999;28;20046;-60
2023/01/21 09:06:28;;;;;;;4.78;3.38;;;2.60;83.00;;;;;;5015244;28;20030;-58
2023/01/21 09:08:58;;;;;;;5.18;2.90;;;2.60;82.70;;;;;;5030129;28;20439;-59
2023/01/21 09:11:27;;;;;;;4.43;2.95;;;2.60;82.20;;;;;;5033595;28;20033;-60
2023/01/21 09:14:02;;;;;;;4.70;2.92;;;2.70;81.90;;;;;;5027717;28;20423;-57
2023/01/21 09:16:31;;;;;;;59.15;24.33;;;2.70;82.00;;;;;;5035520;28;20037;-60
2023/01/21 09:18:59;;;;;;;7.53;4.03;;;2.80;81.00;;;;;;5035794;28;20025;-59
2023/01/21 09:21:29;;;;;;;5.75;3.85;;;2.90;80.60;;;;;;5020001;28;20044;-60
2023/01/21 09:23:58;;;;;;;4.22;3.22;;;2.90;80.90;;;;;;5029299;28;20033;-60
2023/01/21 09:26:25;;;;;;;6.15;3.00;;;3.00;81.20;;;;;;5016122;28;20030;-58
2023/01/21 09:28:57;;;;;;;5.85;3.95;;;3.00;81.60;;;;;;5015052;28;20060;-56
2023/01/21 09:31:26;;;;;;;7.60;5.03;;;3.20;82.40;;;;;;5014661;28;20026;-59
2023/01/21 09:34:00;;;;;;;8.75;6.20;;;3.40;82.70;;;;;;5014485;28;20371;-59
2023/01/21 09:36:30;;;;;;;11.02;8.00;;;3.80;83.10;;;;;;5015663;28;20026;-58
2023/01/21 09:38:56;;;;;;;10.75;7.70;;;4.10;83.70;;;;;;5026894;28;20033;-58
2023/01/21 09:41:39;;;;;;;12.27;9.35;;;4.20;83.80;;;;;;5030258;28;20147;-58
2023/01/21 09:44:27;;;;;;;11.57;7.95;;;4.30;83.30;;;;;;5033731;28;20033;-56
2023/01/21 09:46:59;;;;;;;7.60;4.70;;;4.40;82.80;;;;;;5035557;28;20385;-59
2023/01/21 09:49:38;;;;;;;7.30;4.40;;;4.30;80.20;;;;;;5031301;28;20280;-55
2023/01/21 09:52:15;;;;;;;5.25;3.17;;;4.40;79.40;;;;;;5031044;28;20040;-56
2023/01/21 09:54:42;;;;;;;5.00;3.13;;;4.50;78.90;;;;;;5033633;28;20045;-55
2023/01/21 09:57:17;;;;;;;4.47;3.58;;;4.50;77.80;;;;;;5025429;28;20060;-54
2023/01/21 10:00:01;;;;;;;4.82;3.20;;;4.70;77.70;;;;;;5030793;28;20475;-55
2023/01/21 10:02:58;;;;;;;6.22;5.45;;;4.70;77.50;;;;;;5031158;28;20403;-57
2023/01/21 10:05:51;;;;;;;7.72;5.28;;;4.70;76.40;;;;;;5027453;28;20589;-52
2023/01/21 10:08:28;;;;;;;9.40;6.00;;;4.70;78.00;;;;;;5015070;28;20026;-53
2023/01/21 10:11:20;;;;;;;9.40;6.47;;;4.80;79.10;;;;;;5014872;28;20114;-53
2023/01/21 10:14:06;;;;;;;12.15;7.22;;;4.80;78.80;;;;;;5026705;28;20043;-53
2023/01/21 10:16:53;;;;;;;10.38;8.35;;;4.80;79.50;;;;;;5023656;28;20034;-52
2023/01/21 10:19:27;;;;;;;14.15;11.98;;;4.80;81.00;;;;;;5013766;28;20022;-50
2023/01/21 10:22:07;;;;;;;16.27;11.77;;;4.80;82.60;;;;;;5026897;28;20027;-55
2023/01/21 10:24:37;;;;;;;16.63;12.35;;;4.60;83.80;;;;;;5016068;28;20041;-51
2023/01/21 10:27:05;;;;;;;22.40;13.45;;;4.70;84.50;;;;;;5032452;28;20022;-52
2023/01/21 10:29:36;;;;;;;17.30;14.55;;;4.60;85.00;;;;;;5029782;28;20021;-50
2023/01/21 10:32:07;;;;;;;19.33;14.95;;;4.50;85.20;;;;;;5032786;28;20383;-55
2023/01/21 10:34:39;;;;;;;17.85;15.05;;;4.40;85.70;;;;;;5023370;28;20026;-51
2023/01/21 10:37:23;;;;;;;15.13;13.07;;;4.20;85.90;;;;;;5031719;28;20025;-51
2023/01/21 10:40:44;;;;;;;18.13;13.98;;;4.20;86.40;;;;;;5032779;28;20065;-50
2023/01/21 10:43:41;;;;;;;19.38;13.93;;;4.10;86.90;;;;;;5031755;28;20037;-52
2023/01/21 10:46:39;;;;;;;15.73;12.82;;;4.10;87.00;;;;;;5027503;28;20025;-51
2023/01/21 10:49:19;;;;;;;19.85;14.68;;;4.20;87.00;;;;;;5032369;28;20033;-49
2023/01/21 10:52:14;;;;;;;17.13;13.38;;;4.10;87.40;;;;;;5029173;28;20022;-52
2023/01/21 10:55:19;;;;;;;14.82;12.23;;;4.10;87.20;;;;;;5014226;28;20037;-49
2023/01/21 10:58:24;;;;;;;17.30;13.13;;;4.00;87.40;;;;;;5013940;28;20387;-50
2023/01/21 11:00:52;;;;;;;16.40;12.70;;;3.90;87.70;;;;;;5029077;28;20037;-49
2023/01/21 11:03:30;;;;;;;17.00;13.27;;;3.90;87.90;;;;;;4999151;28;20498;-53
2023/01/21 11:05:59;;;;;;;15.00;12.40;;;3.90;88.60;;;;;;5029845;28;20037;-48
2023/01/21 11:08:26;;;;;;;15.73;11.57;;;3.90;88.30;;;;;;5033739;28;20103;-51
2023/01/21 11:10:56;;;;;;;15.82;11.88;;;3.80;88.40;;;;;;5030442;28;20025;-49
2023/01/21 11:13:23;;;;;;;18.38;12.40;;;3.80;88.30;;;;;;5028971;28;20013;-47
2023/01/21 11:15:58;;;;;;;18.73;14.23;;;3.80;89.00;;;;;;5033293;28;20061;-47
2023/01/21 11:18:37;;;;;;;15.38;12.75;;;3.80;88.80;;;;;;5031911;28;20041;-47
2023/01/21 11:21:24;;;;;;;19.88;14.77;;;3.80;88.90;;;;;;5029598;28;20038;-48
2023/01/21 11:24:01;;;;;;;14.68;11.63;;;3.80;88.90;;;;;;5025888;28;20044;-46
2023/01/21 11:26:35;;;;;;;18.83;14.25;;;3.80;88.90;;;;;;5030534;28;20026;-48
2023/01/21 11:29:16;;;;;;;15.05;11.50;;;3.90;89.00;;;;;;5027856;28;20140;-45
2023/01/21 11:32:01;;;;;;;15.25;11.80;;;3.80;89.00;;;;;;5012796;28;20053;-48
2023/01/21 11:34:28;;;;;;;15.30;11.30;;;3.90;89.10;;;;;;5033088;28;20029;-50
2023/01/21 11:37:04;;;;;;;15.65;11.82;;;3.90;89.00;;;;;;5028762;28;20047;-51
2023/01/21 11:39:44;;;;;;;15.70;12.25;;;3.80;88.80;;;;;;5033137;28;20409;-45
2023/01/21 11:42:15;;;;;;;;;;;3.70;89.30;;;;;;5027324;28;20478;-45
2023/01/21 11:45:19;;;;;;;14.45;9.95;;;3.80;89.60;;;;;;5033614;28;19963;-46
2023/01/21 11:47:49;;;;;;;13.93;10.48;;;3.80;89.50;;;;;;5016401;28;20049;-48
2023/01/21 11:50:38;;;;;;;18.95;12.50;;;3.90;89.60;;;;;;5033172;28;20029;-47
2023/01/21 11:53:25;;;;;;;17.60;12.18;;;3.90;89.50;;;;;;5023573;28;20033;-44
2023/01/21 11:55:58;;;;;;;15.93;11.93;;;4.10;89.70;;;;;;5013580;28;20053;-43
2023/01/21 11:58:28;;;;;;;17.52;12.13;;;4.00;89.20;;;;;;5013585;28;20058;-48
2023/01/21 12:00:58;;;;;;;16.88;11.63;;;4.10;89.70;;;;;;5013277;28;20030;-45
2023/01/21 12:03:35;;;;;;;16.95;12.15;;;4.20;89.70;;;;;;5024078;28;20034;-48
2023/01/21 12:06:01;;;;;;;18.40;12.13;;;4.10;89.20;;;;;;5035879;28;20440;-46
2023/01/21 12:08:34;;;;;;;16.13;12.30;;;4.10;89.40;;;;;;5018407;28;20049;-46
2023/01/21 12:11:04;;;;;;;15.65;11.90;;;4.00;89.40;;;;;;5017345;28;20033;-46
2023/01/21 12:13:51;;;;;;;15.75;11.77;;;4.00;89.30;;;;;;5017196;28;20022;-46
2023/01/21 12:16:44;;;;;;;16.33;12.02;;;4.00;89.60;;;;;;5016537;28;20038;-46
2023/01/21 12:19:48;;;;;;;17.52;11.23;;;4.00;89.50;;;;;;5034766;28;20469;-49
2023/01/21 12:22:39;;;;;;;16.45;11.52;;;4.00;89.40;;;;;;5017078;28;20030;-46
2023/01/21 12:25:23;;;;;;;17.33;12.65;;;4.10;89.20;;;;;;5023076;28;20099;-44
2023/01/21 12:28:13;;;;;;;19.02;15.38;;;4.20;89.10;;;;;;5025344;28;20774;-47
2023/01/21 12:31:21;;;;;;;17.88;15.63;;;4.20;88.30;;;;;;5036050;28;20478;-45
2023/01/21 12:34:24;;;;;;;16.50;12.48;;;4.00;88.10;;;;;;5032605;28;20032;-47
2023/01/21 12:37:21;;;;;;;21.35;13.77;;;4.00;88.20;;;;;;5032648;28;20049;-44
2023/01/21 12:39:51;;;;;;;18.05;14.13;;;4.00;88.10;;;;;;5035930;28;20123;-48
2023/01/21 12:42:36;;;;;;;37.05;33.85;;;3.90;88.10;;;;;;5034301;28;20064;-45
2023/01/21 12:45:30;;;;;;;18.17;16.27;;;3.80;88.50;;;;;;5035608;28;20034;-47
2023/01/21 12:48:02;;;;;;;20.40;14.48;;;3.80;88.70;;;;;;5035299;28;20449;-45
2023/01/21 12:50:40;;;;;;;17.13;13.38;;;3.80;89.10;;;;;;5024697;28;20018;-46
2023/01/21 12:53:32;;;;;;;18.17;14.40;;;3.90;89.30;;;;;;5015291;28;20026;-45
2023/01/21 12:56:06;;;;;;;22.05;16.45;;;3.90;89.20;;;;;;5016445;28;20022;-44
2023/01/21 12:58:58;;;;;;;22.70;14.45;;;3.90;89.30;;;;;;5016359;28;20038;-44
2023/01/21 13:02:04;;;;;;;20.50;14.75;;;3.90;89.30;;;;;;5025930;28;20497;-45
2023/01/21 13:04:42;;;;;;;18.55;14.07;;;4.00;89.40;;;;;;5031964;28;20088;-43
2023/01/21 13:07:19;;;;;;;19.27;14.43;;;4.00;89.10;;;;;;5035376;28;20049;-47
2023/01/21 13:10:10;;;;;;;19.77;14.13;;;4.00;89.00;;;;;;5031680;28;20133;-46
2023/01/21 13:12:38;;;;;;;17.92;12.80;;;3.90;88.40;;;;;;5035864;28;20390;-45